Time;durP1;ratioP1;P1;durP2;ratioP2;P2;SDS_P1;SDS_P2;PMS_P1;PMS_P2;Temp;Humidity;BMP_temperature;BMP_pressure;BME280_temperature;BME280_humidity;BME280_pressure;Samples;Min_cycle;Max_cycle;Signal;HPM_P1;HPM_P2
2023/06/06 00:00:54;;;;;;;327.08;313.25;;;8.10;99.90;;;;;;5086819;28;20047;-78
2023/06/06 00:03:21;;;;;;;332.63;318.33;;;8.10;99.90;;;;;;5072983;28;20040;-78
2023/06/06 00:05:48;;;;;;;327.10;313.00;;;8.00;99.90;;;;;;5073332;28;20077;-79
2023/06/06 00:08:14;;;;;;;331.38;317.17;;;8.10;99.90;;;;;;5068221;28;20040;-78
2023/06/06 00:10:40;;;;;;;342.33;327.50;;;8.00;99.90;;;;;;5064939;28;20411;-78
2023/06/06 00:13:05;;;;;;;357.50;342.15;;;8.00;99.90;;;;;;5080381;28;20027;-78
2023/06/06 00:15:31;;;;;;;354.17;338.58;;;8.00;99.90;;;;;;5097878;27;20035;-78
2023/06/06 00:17:59;;;;;;;357.65;342.27;;;8.00;99.90;;;;;;5091313;28;20126;-78
2023/06/06 00:20:26;;;;;;;362.77;346.85;;;7.90;99.90;;;;;;5064640;28;20047;-78
2023/06/06 00:22:56;;;;;;;368.40;352.38;;;7.90;99.90;;;;;;5084752;28;20040;-78
2023/06/06 00:25:22;;;;;;;363.23;347.48;;;7.90;99.90;;;;;;5079203;28;20044;-78
2023/06/06 00:27:47;;;;;;;361.13;345.38;;;7.90;99.90;;;;;;5072928;28;20046;-78
2023/06/06 00:30:13;;;;;;;359.10;343.52;;;7.90;99.90;;;;;;5088563;28;20131;-78
2023/06/06 00:32:39;;;;;;;342.42;327.63;;;7.80;99.90;;;;;;5077943;28;20597;-79
2023/06/06 00:35:05;;;;;;;337.60;322.90;;;7.90;99.90;;;;;;5058775;28;20459;-78
2023/06/06 00:37:31;;;;;;;333.48;319.08;;;7.90;99.90;;;;;;5090445;27;20040;-78
2023/06/06 00:39:56;;;;;;;339.27;324.25;;;7.90;99.90;;;;;;5078141;28;21143;-79
2023/06/06 00:42:22;;;;;;;333.30;318.98;;;7.80;99.90;;;;;;5091298;28;20404;-78
2023/06/06 00:44:48;;;;;;;309.52;296.63;;;7.80;99.90;;;;;;5070631;28;20081;-79
2023/06/06 00:47:14;;;;;;;285.85;273.42;;;7.90;99.90;;;;;;5087478;28;20046;-78
2023/06/06 00:49:41;;;;;;;266.85;255.85;;;7.90;99.90;;;;;;5104064;28;20052;-79
2023/06/06 00:52:08;;;;;;;277.33;265.52;;;7.90;99.90;;;;;;5094829;28;20132;-78
2023/06/06 00:54:34;;;;;;;283.90;272.02;;;8.00;99.90;;;;;;5071699;28;20035;-78
2023/06/06 00:57:00;;;;;;;271.95;260.63;;;7.90;99.90;;;;;;5090895;28;20565;-78
2023/06/06 00:59:26;;;;;;;289.65;277.40;;;8.00;99.90;;;;;;5084670;28;20040;-78
2023/06/06 01:01:53;;;;;;;301.70;288.55;;;8.00;99.90;;;;;;5081957;28;20043;-78
2023/06/06 01:04:20;;;;;;;308.45;295.42;;;7.90;99.90;;;;;;5088106;28;20059;-78
2023/06/06 01:06:46;;;;;;;312.23;298.80;;;7.90;99.90;;;;;;5088566;28;20119;-78
2023/06/06 01:09:13;;;;;;;315.27;301.98;;;7.90;99.90;;;;;;5092008;28;20044;-78
2023/06/06 01:11:59;;;;;;;306.55;293.83;;;7.90;99.90;;;;;;5087596;28;20043;-79
2023/06/06 01:14:36;;;;;;;299.00;286.17;;;7.90;99.90;;;;;;5086865;28;20039;-78
2023/06/06 01:17:04;;;;;;;298.95;286.17;;;7.90;99.90;;;;;;5089056;28;20128;-78
2023/06/06 01:19:32;;;;;;;266.10;255.05;;;8.00;99.90;;;;;;5087870;28;20043;-78
2023/06/06 01:21:58;;;;;;;278.15;265.77;;;8.00;99.90;;;;;;5077054;28;20062;-78
2023/06/06 01:24:26;;;;;;;285.13;272.70;;;8.00;99.90;;;;;;5091760;28;20043;-78
2023/06/06 01:26:53;;;;;;;269.05;257.40;;;8.00;99.90;;;;;;5077452;28;20062;-78
2023/06/06 01:29:18;;;;;;;279.65;267.73;;;8.00;99.90;;;;;;5082214;28;20173;-78
2023/06/06 01:32:08;;;;;;;285.02;272.67;;;8.10;99.90;;;;;;5093034;28;20543;-78
2023/06/06 01:34:44;;;;;;;277.30;265.77;;;8.10;99.90;;;;;;5035233;28;20109;-78
2023/06/06 01:37:11;;;;;;;281.63;269.55;;;8.10;99.90;;;;;;5090033;28;20073;-78
2023/06/06 01:39:43;;;;;;;288.83;276.38;;;8.20;99.90;;;;;;5063768;27;20498;-78
2023/06/06 01:42:09;;;;;;;286.52;274.48;;;8.20;99.90;;;;;;5090539;27;20608;-79
2023/06/06 01:44:37;;;;;;;289.60;277.35;;;8.20;99.90;;;;;;5093835;28;20129;-78
2023/06/06 01:47:04;;;;;;;294.95;282.40;;;8.20;99.90;;;;;;5087805;28;20134;-78
2023/06/06 01:49:30;;;;;;;295.42;282.73;;;8.30;99.90;;;;;;5075421;28;20039;-78
2023/06/06 01:51:56;;;;;;;276.10;264.25;;;8.30;99.90;;;;;;5073081;28;20092;-78
2023/06/06 01:54:22;;;;;;;273.42;261.75;;;8.30;99.90;;;;;;5091993;28;20441;-78
2023/06/06 01:56:48;;;;;;;277.80;265.80;;;8.30;99.90;;;;;;5076234;27;20043;-78
2023/06/06 01:59:14;;;;;;;277.88;265.65;;;8.30;99.90;;;;;;5074287;28;20051;-78
2023/06/06 02:01:40;;;;;;;271.58;259.58;;;8.30;99.90;;;;;;5096712;27;20039;-78
2023/06/06 02:04:06;;;;;;;282.85;270.77;;;8.30;99.90;;;;;;5093216;27;20078;-78
2023/06/06 02:06:32;;;;;;;284.02;271.85;;;8.30;99.90;;;;;;5098984;28;20039;-78
2023/06/06 02:08:58;;;;;;;278.50;266.70;;;8.30;99.90;;;;;;5074561;28;20138;-78
2023/06/06 02:11:24;;;;;;;285.38;273.23;;;8.30;99.90;;;;;;5088444;28;20146;-78
2023/06/06 02:13:51;;;;;;;287.55;274.33;;;8.30;99.90;;;;;;5086465;27;20487;-77
2023/06/06 02:16:17;;;;;;;284.88;272.35;;;8.40;99.90;;;;;;5082125;28;20081;-78
2023/06/06 02:18:44;;;;;;;282.48;270.08;;;8.40;99.90;;;;;;5084343;28;20046;-78
2023/06/06 02:21:12;;;;;;;281.13;268.55;;;8.40;99.90;;;;;;5076931;27;20126;-77
2023/06/06 02:23:38;;;;;;;276.58;264.65;;;8.40;99.90;;;;;;5075481;28;20406;-78
2023/06/06 02:26:03;;;;;;;285.88;273.58;;;8.40;99.90;;;;;;5078152;28;20036;-78
2023/06/06 02:28:30;;;;;;;271.58;260.25;;;8.40;99.90;;;;;;5074437;28;20407;-77
2023/06/06 02:30:56;;;;;;;274.20;262.38;;;8.40;99.90;;;;;;5067944;28;20043;-77
2023/06/06 02:33:22;;;;;;;274.70;262.95;;;8.40;99.90;;;;;;5089605;28;20032;-77
2023/06/06 02:35:49;;;;;;;286.23;274.25;;;8.40;99.90;;;;;;5090376;28;20088;-77
2023/06/06 02:38:15;;;;;;;272.50;261.05;;;8.50;99.90;;;;;;5091659;28;20036;-77
2023/06/06 02:40:41;;;;;;;276.42;264.38;;;8.50;99.90;;;;;;5084355;27;20122;-78
2023/06/06 02:43:06;;;;;;;279.95;268.25;;;8.50;99.90;;;;;;5105819;27;20031;-77
2023/06/06 02:45:32;;;;;;;280.60;268.65;;;8.50;99.90;;;;;;5094758;28;20035;-77
2023/06/06 02:47:57;;;;;;;281.42;269.30;;;8.50;99.90;;;;;;5093166;28;20046;-77
2023/06/06 02:50:24;;;;;;;278.42;266.40;;;8.50;99.90;;;;;;5089863;28;20040;-77
2023/06/06 02:52:51;;;;;;;278.00;266.50;;;8.50;99.90;;;;;;5075109;28;20444;-77
2023/06/06 02:55:17;;;;;;;271.80;260.60;;;8.50;99.90;;;;;;5080395;28;20054;-77
2023/06/06 02:57:42;;;;;;;271.55;260.02;;;8.50;99.90;;;;;;5075125;28;20027;-77
2023/06/06 03:00:09;;;;;;;276.90;264.58;;;8.50;99.90;;;;;;5071440;28;20040;-77
2023/06/06 03:02:35;;;;;;;271.13;259.77;;;8.50;99.90;;;;;;5082551;28;20040;-77
2023/06/06 03:05:02;;;;;;;286.13;273.92;;;8.50;99.90;;;;;;5088571;28;20035;-77
2023/06/06 03:07:28;;;;;;;297.77;284.92;;;8.50;99.90;;;;;;5089633;28;20055;-77
2023/06/06 03:09:53;;;;;;;263.17;252.10;;;8.50;99.90;;;;;;5070214;28;20043;-77
2023/06/06 03:12:19;;;;;;;264.40;252.70;;;8.50;99.90;;;;;;5070565;28;20093;-77
2023/06/06 03:14:44;;;;;;;277.52;265.90;;;8.50;99.90;;;;;;5080042;27;20035;-77
2023/06/06 03:17:10;;;;;;;270.17;258.58;;;8.50;99.90;;;;;;5083045;27;20356;-77
2023/06/06 03:19:36;;;;;;;264.13;252.75;;;8.60;99.90;;;;;;5074273;28;20031;-77
2023/06/06 03:22:02;;;;;;;262.88;251.73;;;8.60;99.90;;;;;;5072914;28;20556;-77
2023/06/06 03:24:29;;;;;;;248.18;237.60;;;8.60;99.90;;;;;;5090955;28;20388;-77
2023/06/06 03:26:56;;;;;;;235.40;225.07;;;8.60;99.90;;;;;;5084565;28;20051;-77
2023/06/06 03:29:22;;;;;;;244.60;234.07;;;8.70;99.90;;;;;;5089745;28;20116;-77
2023/06/06 03:31:50;;;;;;;228.07;218.68;;;8.70;99.90;;;;;;5088845;28;20048;-77
2023/06/06 03:34:16;;;;;;;225.30;215.70;;;8.70;99.90;;;;;;5092044;27;20127;-77
2023/06/06 03:36:41;;;;;;;217.18;207.98;;;8.80;99.90;;;;;;5070902;28;20118;-77
2023/06/06 03:39:07;;;;;;;198.95;190.35;;;8.80;99.90;;;;;;5090243;28;20043;-77
2023/06/06 03:41:33;;;;;;;204.75;196.10;;;8.90;99.90;;;;;;5069354;28;20607;-76
2023/06/06 03:44:00;;;;;;;195.07;186.70;;;8.90;99.90;;;;;;5091366;28;20039;-77
2023/06/06 03:46:26;;;;;;;171.90;164.18;;;9.00;99.90;;;;;;5087163;28;20123;-77
2023/06/06 03:48:51;;;;;;;185.20;177.38;;;9.00;99.90;;;;;;5074999;27;20115;-77
2023/06/06 03:51:17;;;;;;;179.35;170.57;;;9.10;99.90;;;;;;5088408;28;20100;-77
2023/06/06 03:53:43;;;;;;;162.45;155.35;;;9.10;99.90;;;;;;5090575;28;20526;-77
2023/06/06 03:56:09;;;;;;;160.82;154.05;;;9.10;99.90;;;;;;5089913;27;20126;-76
2023/06/06 03:58:36;;;;;;;157.68;150.57;;;9.20;99.90;;;;;;5090922;28;20065;-77
2023/06/06 04:01:02;;;;;;;147.98;141.45;;;9.20;99.90;;;;;;5071721;28;20149;-77
2023/06/06 04:03:29;;;;;;;145.98;139.63;;;9.20;99.90;;;;;;5081303;28;20504;-76
2023/06/06 04:05:55;;;;;;;130.05;124.13;;;9.30;99.90;;;;;;5093293;28;20160;-77
2023/06/06 04:08:20;;;;;;;122.40;116.65;;;9.30;99.90;;;;;;5086910;28;20515;-78
2023/06/06 04:10:46;;;;;;;130.30;124.22;;;9.40;99.90;;;;;;5077731;27;20103;-77
2023/06/06 04:13:12;;;;;;;126.68;121.00;;;9.50;99.90;;;;;;5072588;28;20491;-78
2023/06/06 04:15:37;;;;;;;120.85;115.22;;;9.50;99.90;;;;;;5083403;28;20404;-77
2023/06/06 04:18:04;;;;;;;111.00;105.97;;;9.60;99.90;;;;;;5067040;28;20089;-77
2023/06/06 04:20:32;;;;;;;108.75;103.78;;;9.70;99.90;;;;;;5073395;28;20035;-78
2023/06/06 04:23:00;;;;;;;101.13;96.13;;;9.70;99.90;;;;;;5090164;28;20085;-78
2023/06/06 04:25:26;;;;;;;97.72;93.30;;;9.80;99.90;;;;;;5069614;28;20031;-77
2023/06/06 04:27:52;;;;;;;100.72;96.10;;;10.00;99.90;;;;;;5086403;28;20035;-78
2023/06/06 04:30:22;;;;;;;99.70;95.20;;;10.20;99.90;;;;;;5073253;27;20079;-78
2023/06/06 04:32:49;;;;;;;96.05;91.80;;;10.30;99.90;;;;;;5093464;27;20043;-78
2023/06/06 04:35:15;;;;;;;95.75;91.35;;;10.40;99.90;;;;;;5089409;28;20054;-78
2023/06/06 04:37:41;;;;;;;97.97;93.40;;;10.60;99.90;;;;;;5094959;28;20039;-79
2023/06/06 04:40:11;;;;;;;98.28;93.78;;;10.70;99.90;;;;;;5059412;28;20051;-78
2023/06/06 04:42:37;;;;;;;96.13;91.30;;;10.60;99.90;;;;;;5089000;28;20047;-77
2023/06/06 04:45:03;;;;;;;92.03;87.72;;;10.60;99.90;;;;;;5088973;28;20050;-78
2023/06/06 04:47:33;;;;;;;97.13;92.53;;;10.60;99.90;;;;;;5066446;28;20040;-78
2023/06/06 04:50:00;;;;;;;102.57;97.65;;;10.60;99.90;;;;;;5073614;28;20092;-77
2023/06/06 04:52:26;;;;;;;89.90;85.75;;;10.70;99.90;;;;;;5063248;28;20131;-78
2023/06/06 04:54:55;;;;;;;101.07;96.47;;;10.70;99.90;;;;;;5072240;28;20071;-79
2023/06/06 04:57:21;;;;;;;101.75;96.50;;;10.80;99.90;;;;;;5089446;28;20118;-79
2023/06/06 04:59:54;;;;;;;88.57;84.53;;;10.80;99.90;;;;;;5073995;28;20476;-76
2023/06/06 05:02:28;;;;;;;91.75;87.25;;;11.00;99.90;;;;;;5058808;28;20518;-78
2023/06/06 05:04:55;;;;;;;94.35;90.15;;;11.10;99.90;;;;;;5071271;28;20171;-78
2023/06/06 05:07:24;;;;;;;105.38;100.47;;;11.20;99.90;;;;;;5086835;28;20075;-78
2023/06/06 05:09:52;;;;;;;100.35;95.38;;;11.30;99.90;;;;;;5072176;28;20042;-79
2023/06/06 05:12:17;;;;;;;97.57;92.85;;;11.40;99.90;;;;;;5089126;28;20042;-78
2023/06/06 05:14:43;;;;;;;90.95;86.63;;;11.60;99.90;;;;;;5068837;28;20040;-77
2023/06/06 05:17:09;;;;;;;83.07;79.15;;;11.80;99.90;;;;;;5084332;28;20558;-79
2023/06/06 05:19:35;;;;;;;84.85;80.55;;;12.10;99.90;;;;;;5070395;28;20403;-78
2023/06/06 05:22:01;;;;;;;80.00;75.70;;;12.40;99.90;;;;;;5067025;28;20044;-78
2023/06/06 05:24:26;;;;;;;73.00;68.95;;;12.50;99.90;;;;;;5083178;28;20074;-79
2023/06/06 05:26:52;;;;;;;71.70;67.85;;;12.40;99.90;;;;;;5085308;28;20043;-78
2023/06/06 05:29:18;;;;;;;84.47;79.95;;;12.40;99.90;;;;;;5077385;28;20131;-78
2023/06/06 05:31:43;;;;;;;68.30;64.40;;;12.40;99.90;;;;;;5065617;28;20060;-78
2023/06/06 05:34:09;;;;;;;60.67;57.60;;;12.50;99.90;;;;;;5050051;28;20039;-78
2023/06/06 05:36:35;;;;;;;56.10;52.95;;;12.40;99.90;;;;;;5070517;28;20139;-79
2023/06/06 05:39:01;;;;;;;53.13;50.03;;;12.50;99.90;;;;;;5064035;28;20036;-79
2023/06/06 05:41:27;;;;;;;51.33;48.53;;;12.50;99.90;;;;;;5054439;28;20134;-80
2023/06/06 05:43:52;;;;;;;53.22;50.00;;;12.60;99.90;;;;;;5054008;28;20036;-79
2023/06/06 05:46:18;;;;;;;52.47;49.22;;;12.80;99.90;;;;;;5058728;28;20045;-80
2023/06/06 05:48:44;;;;;;;49.97;47.15;;;12.90;99.90;;;;;;5063843;28;20048;-79
2023/06/06 05:51:10;;;;;;;50.35;47.47;;;13.00;99.90;;;;;;5065769;28;20083;-80
2023/06/06 05:53:46;;;;;;;45.63;43.22;;;13.00;99.90;;;;;;5048517;28;20143;-79
2023/06/06 05:56:13;;;;;;;53.17;49.90;;;13.10;99.90;;;;;;5078369;28;20031;-77
2023/06/06 05:58:40;;;;;;;52.97;49.58;;;13.20;99.90;;;;;;5057987;28;20047;-76
2023/06/06 06:01:05;;;;;;;53.53;50.50;;;13.40;99.90;;;;;;5059764;28;20446;-77
2023/06/06 06:03:33;;;;;;;48.40;45.65;;;13.50;99.90;;;;;;5058199;28;20040;-77
2023/06/06 06:06:04;;;;;;;51.72;48.92;;;13.80;99.90;;;;;;5067761;28;20055;-75
2023/06/06 06:08:31;;;;;;;46.75;43.67;;;14.00;99.90;;;;;;5050218;28;20039;-78
2023/06/06 06:10:57;;;;;;;46.17;43.60;;;14.20;99.90;;;;;;5056008;28;20047;-76
2023/06/06 06:13:22;;;;;;;46.63;43.90;;;14.30;99.90;;;;;;5071933;28;20040;-76
2023/06/06 06:15:48;;;;;;;50.25;47.30;;;14.60;99.90;;;;;;5069617;28;20142;-76
2023/06/06 06:18:14;;;;;;;50.70;48.08;;;15.10;99.90;;;;;;5043469;28;20115;-76
2023/06/06 06:20:40;;;;;;;60.15;56.88;;;15.60;99.90;;;;;;5053894;28;20039;-77
2023/06/06 06:23:06;;;;;;;54.17;51.45;;;15.90;99.90;;;;;;5042377;28;20091;-75
2023/06/06 06:25:31;;;;;;;51.22;48.33;;;16.50;99.90;;;;;;5074507;28;20401;-78
2023/06/06 06:27:57;;;;;;;44.20;41.88;;;16.80;99.90;;;;;;5069032;28;20032;-75
2023/06/06 06:30:23;;;;;;;44.15;41.42;;;17.00;99.90;;;;;;5076676;28;20075;-77
2023/06/06 06:32:49;;;;;;;68.88;65.45;;;17.40;99.90;;;;;;5076632;28;20509;-78
2023/06/06 06:35:14;;;;;;;68.03;64.55;;;18.00;99.90;;;;;;5078062;28;20067;-77
2023/06/06 06:37:40;;;;;;;80.18;76.20;;;18.10;99.90;;;;;;5069479;28;20035;-78
2023/06/06 06:40:10;;;;;;;80.18;75.97;;;17.80;99.90;;;;;;5058703;28;20424;-76
2023/06/06 06:42:40;;;;;;;87.50;83.63;;;18.00;99.90;;;;;;5078344;27;20479;-76
2023/06/06 06:45:19;;;;;;;102.85;98.30;;;18.40;99.90;;;;;;5065391;28;20066;-77
2023/06/06 06:47:45;;;;;;;119.82;114.35;;;18.80;99.90;;;;;;5076569;28;20052;-78
2023/06/06 06:50:11;;;;;;;119.45;113.85;;;18.70;99.90;;;;;;5066258;28;20039;-77
2023/06/06 06:52:37;;;;;;;137.10;131.00;;;19.10;99.90;;;;;;5098341;27;20074;-78
2023/06/06 06:55:04;;;;;;;123.07;117.45;;;19.50;99.90;;;;;;5069324;28;20039;-78
2023/06/06 06:57:31;;;;;;;132.63;126.72;;;19.10;99.90;;;;;;5096446;27;20117;-79
2023/06/06 06:59:58;;;;;;;105.07;100.20;;;19.10;99.90;;;;;;5086703;28;20047;-77
2023/06/06 07:02:26;;;;;;;119.85;114.40;;;19.00;99.90;;;;;;5086603;28;20074;-78
2023/06/06 07:04:57;;;;;;;118.38;113.13;;;19.20;99.90;;;;;;5067998;28;20043;-77
2023/06/06 07:07:24;;;;;;;104.13;99.63;;;19.40;99.90;;;;;;5069701;28;20489;-77
2023/06/06 07:09:49;;;;;;;92.15;88.03;;;19.70;99.90;;;;;;5049478;28;20074;-79
2023/06/06 07:12:15;;;;;;;82.45;78.15;;;20.00;99.90;;;;;;5080989;28;20494;-79
2023/06/06 07:14:42;;;;;;;77.63;74.10;;;20.30;99.90;;;;;;5069648;28;20126;-77
2023/06/06 07:17:07;;;;;;;76.32;72.57;;;20.20;99.90;;;;;;5078969;28;20464;-79
2023/06/06 07:19:36;;;;;;;76.47;72.75;;;20.20;99.90;;;;;;5081426;28;20085;-78
2023/06/06 07:22:04;;;;;;;80.72;76.82;;;20.10;99.90;;;;;;5064115;28;20126;-77
2023/06/06 07:24:30;;;;;;;66.80;63.60;;;20.30;99.90;;;;;;5072737;27;20490;-77
2023/06/06 07:26:56;;;;;;;64.95;61.53;;;20.40;99.90;;;;;;5069549;28;20050;-79
2023/06/06 07:29:23;;;;;;;74.55;70.88;;;20.60;99.90;;;;;;5067532;28;20056;-78
2023/06/06 07:31:50;;;;;;;47.10;44.85;;;20.70;99.90;;;;;;5086055;28;20055;-78
2023/06/06 07:34:15;;;;;;;58.50;55.40;;;20.90;99.90;;;;;;5081552;28;20434;-78
2023/06/06 07:36:41;;;;;;;47.08;44.70;;;20.80;99.90;;;;;;5083485;28;20138;-78
2023/06/06 07:39:08;;;;;;;62.90;59.53;;;20.40;99.90;;;;;;5085493;28;20152;-78
2023/06/06 07:41:33;;;;;;;55.08;52.13;;;20.40;99.90;;;;;;5069249;28;20135;-77
2023/06/06 07:44:00;;;;;;;70.13;66.88;;;20.60;99.90;;;;;;5066889;28;20403;-78
2023/06/06 07:46:26;;;;;;;49.53;47.15;;;20.60;99.90;;;;;;5071732;28;20162;-78
2023/06/06 07:48:52;;;;;;;46.17;43.67;;;20.30;99.90;;;;;;5082791;28;20142;-78
2023/06/06 07:51:18;;;;;;;40.67;38.40;;;20.00;99.90;;;;;;5086649;28;20032;-77
2023/06/06 07:53:44;;;;;;;60.08;57.17;;;19.90;99.90;;;;;;5063659;28;20051;-78
2023/06/06 07:56:13;;;;;;;82.93;78.97;;;20.10;99.90;;;;;;5089920;28;20035;-78
2023/06/06 07:58:43;;;;;;;66.53;63.45;;;20.20;99.90;;;;;;5090169;28;20098;-76
2023/06/06 08:01:12;;;;;;;41.47;39.30;;;20.50;99.90;;;;;;5075219;28;20044;-78
2023/06/06 08:03:38;;;;;;;74.95;71.10;;;20.80;99.90;;;;;;5073301;28;20050;-78
2023/06/06 08:06:04;;;;;;;36.83;34.70;;;21.00;99.90;;;;;;5073183;28;20512;-77
2023/06/06 08:08:31;;;;;;;15.98;14.50;;;21.20;99.90;;;;;;5072196;28;20077;-77
2023/06/06 08:10:57;;;;;;;26.15;24.10;;;21.00;99.80;;;;;;5085638;28;20039;-75
2023/06/06 08:13:22;;;;;;;24.10;22.25;;;20.70;99.50;;;;;;5089493;28;20086;-77
2023/06/06 08:15:48;;;;;;;16.45;14.98;;;20.50;99.90;;;;;;5067541;28;20142;-75
2023/06/06 08:18:14;;;;;;;42.35;39.53;;;20.40;99.90;;;;;;5060087;28;20036;-77
2023/06/06 08:20:40;;;;;;;35.28;33.22;;;20.30;99.90;;;;;;5088468;28;20036;-79
2023/06/06 08:23:06;;;;;;;31.00;28.90;;;20.40;99.90;;;;;;5087062;28;20042;-77
2023/06/06 08:25:33;;;;;;;24.38;22.60;;;20.50;99.90;;;;;;5093442;28;20113;-77
2023/06/06 08:27:58;;;;;;;22.70;20.92;;;20.40;99.90;;;;;;5072238;28;20041;-76
2023/06/06 08:30:25;;;;;;;57.03;53.97;;;20.40;99.90;;;;;;5070360;28;20039;-78
2023/06/06 08:32:50;;;;;;;28.23;26.33;;;20.70;99.90;;;;;;5082239;28;20040;-77
2023/06/06 08:35:19;;;;;;;64.70;61.63;;;21.00;99.90;;;;;;5075740;28;20044;-79
2023/06/06 08:37:45;;;;;;;16.90;15.65;;;21.00;99.90;;;;;;5082891;28;20181;-78
2023/06/06 08:40:11;;;;;;;19.48;18.05;;;20.90;99.90;;;;;;5088126;28;20032;-78
2023/06/06 08:42:47;;;;;;;17.02;15.73;;;21.00;99.90;;;;;;5074079;28;20058;-78
2023/06/06 08:45:13;;;;;;;19.63;17.85;;;21.20;99.90;;;;;;5081963;28;20490;-78
2023/06/06 08:47:40;;;;;;;20.92;19.33;;;21.20;99.90;;;;;;5082211;28;20130;-78
2023/06/06 08:50:07;;;;;;;16.80;15.23;;;21.40;99.90;;;;;;5085396;28;20053;-77
2023/06/06 08:52:39;;;;;;;17.30;15.80;;;21.40;99.90;;;;;;5070270;28;20539;-77
2023/06/06 08:55:06;;;;;;;16.13;14.57;;;21.30;99.70;;;;;;5072007;28;20529;-77
2023/06/06 08:57:32;;;;;;;17.27;16.05;;;21.30;99.90;;;;;;5088988;28;20055;-77
2023/06/06 09:00:00;;;;;;;17.27;15.77;;;21.30;99.60;;;;;;5081682;28;20032;-77
2023/06/06 09:02:28;;;;;;;18.35;16.90;;;21.10;99.90;;;;;;5084806;28;20079;-77
2023/06/06 09:04:56;;;;;;;18.88;17.17;;;21.10;99.90;;;;;;5085074;28;20051;-77
2023/06/06 09:07:24;;;;;;;18.70;16.75;;;20.90;99.90;;;;;;5068131;28;20091;-78
2023/06/06 09:09:52;;;;;;;19.42;17.88;;;20.80;99.90;;;;;;5081114;28;20052;-75
2023/06/06 09:12:17;;;;;;;19.33;17.80;;;20.70;99.90;;;;;;5084565;28;20479;-77
2023/06/06 09:14:43;;;;;;;22.55;20.98;;;20.90;99.90;;;;;;5072551;28;20122;-78
2023/06/06 09:17:15;;;;;;;24.15;22.23;;;20.90;99.90;;;;;;5074029;28;20146;-76
2023/06/06 09:19:46;;;;;;;24.05;22.10;;;21.00;99.90;;;;;;5081529;28;20096;-77
2023/06/06 09:22:12;;;;;;;22.92;20.70;;;21.00;99.90;;;;;;5085000;28;20089;-75
2023/06/06 09:24:44;;;;;;;19.55;18.00;;;21.00;99.90;;;;;;5096959;28;20035;-76
2023/06/06 09:27:29;;;;;;;21.17;19.52;;;21.10;99.90;;;;;;5067778;28;20047;-76
2023/06/06 09:29:55;;;;;;;;;;;21.20;99.90;;;;;;5079063;28;20411;-76
2023/06/06 09:32:30;;;;;;;19.95;18.35;;;21.20;99.90;;;;;;5087405;28;19930;-78
2023/06/06 09:35:00;;;;;;;22.25;20.50;;;21.30;99.90;;;;;;5077839;28;20039;-78
2023/06/06 09:37:28;;;;;;;21.63;20.13;;;21.20;99.30;;;;;;5071506;28;20043;-77
2023/06/06 09:40:13;;;;;;;17.45;15.95;;;21.10;99.90;;;;;;5084303;28;20079;-78
2023/06/06 09:42:42;;;;;;;21.30;19.90;;;21.00;99.80;;;;;;5092764;28;20041;-77
2023/06/06 09:45:19;;;;;;;17.48;16.08;;;20.90;99.90;;;;;;5071090;28;20106;-77
2023/06/06 09:47:48;;;;;;;19.27;17.70;;;20.90;99.90;;;;;;5090114;28;20052;-78
2023/06/06 09:50:16;;;;;;;21.83;19.77;;;20.90;99.90;;;;;;5092723;28;20047;-77
2023/06/06 09:52:42;;;;;;;19.48;18.17;;;21.00;99.90;;;;;;5092488;28;20082;-77
2023/06/06 09:55:10;;;;;;;19.15;17.73;;;21.00;99.90;;;;;;5091960;28;20039;-78
2023/06/06 09:57:37;;;;;;;17.73;16.33;;;21.10;99.90;;;;;;5074572;28;20122;-76
2023/06/06 10:00:10;;;;;;;14.98;13.55;;;20.90;98.90;;;;;;5088465;28;20032;-77
2023/06/06 10:02:42;;;;;;;23.10;21.50;;;20.80;99.80;;;;;;5082692;28;20043;-78
2023/06/06 10:05:11;;;;;;;17.30;16.00;;;20.70;99.90;;;;;;5068863;28;20039;-76
2023/06/06 10:07:40;;;;;;;16.08;14.68;;;20.80;99.90;;;;;;5074908;28;20040;-77
2023/06/06 10:10:08;;;;;;;20.13;18.42;;;20.70;99.60;;;;;;5084826;28;20043;-76
2023/06/06 10:12:35;;;;;;;14.98;13.75;;;20.60;99.70;;;;;;5073906;28;20142;-77
2023/06/06 10:15:02;;;;;;;15.50;14.20;;;20.60;99.50;;;;;;5091564;28;20036;-78
2023/06/06 10:17:30;;;;;;;18.77;17.13;;;20.50;99.20;;;;;;5077870;28;20031;-78
2023/06/06 10:20:05;;;;;;;19.83;18.38;;;20.50;99.10;;;;;;5075214;28;20039;-76
2023/06/06 10:22:30;;;;;;;15.48;13.77;;;20.20;99.90;;;;;;5080467;27;20097;-77
2023/06/06 10:24:57;;;;;;;28.98;27.17;;;20.30;99.90;;;;;;5087098;27;20118;-78
2023/06/06 10:27:27;;;;;;;18.20;16.73;;;20.30;99.90;;;;;;5080609;28;20311;-76
2023/06/06 10:30:29;;;;;;;16.40;15.00;;;20.50;99.90;;;;;;5082811;28;20538;-77
2023/06/06 10:33:19;;;;;;;51.20;48.13;;;20.50;99.90;;;;;;5077848;28;20082;-78
2023/06/06 10:35:48;;;;;;;36.42;33.90;;;20.70;99.90;;;;;;5083197;28;20035;-78
2023/06/06 10:38:14;;;;;;;54.22;51.33;;;20.90;99.90;;;;;;5084142;28;20516;-77
2023/06/06 10:40:52;;;;;;;65.68;61.88;;;20.80;99.60;;;;;;5081298;27;20127;-77
2023/06/06 10:43:37;;;;;;;49.83;46.85;;;20.90;99.90;;;;;;5066891;28;20039;-77
2023/06/06 10:46:03;;;;;;;33.38;31.02;;;20.90;99.60;;;;;;5074159;28;20089;-77
2023/06/06 10:48:36;;;;;;;38.33;35.92;;;20.90;99.40;;;;;;5086978;28;20564;-77
2023/06/06 10:51:02;;;;;;;49.83;46.92;;;20.70;99.90;;;;;;5074829;28;20036;-76
2023/06/06 10:53:28;;;;;;;50.40;47.55;;;20.50;99.90;;;;;;5088570;28;20046;-78
2023/06/06 10:55:53;;;;;;;48.30;45.50;;;20.50;99.90;;;;;;5088332;28;20381;-79
2023/06/06 10:58:38;;;;;;;36.45;34.13;;;20.60;99.90;;;;;;5087653;28;20051;-77
2023/06/06 11:01:06;;;;;;;58.35;21.77;;;20.70;99.90;;;;;;5073050;28;20044;-78
2023/06/06 11:03:41;;;;;;;240.15;226.05;;;20.70;99.90;;;;;;5075479;28;20028;-79
2023/06/06 11:06:09;;;;;;;54.05;50.92;;;20.70;99.90;;;;;;5081800;28;20499;-78
2023/06/06 11:08:36;;;;;;;315.63;299.15;;;20.70;99.90;;;;;;5063649;28;20516;-79
2023/06/06 11:11:18;;;;;;;67.97;63.97;;;20.90;99.90;;;;;;5090263;28;20071;-76
2023/06/06 11:13:54;;;;;;;246.63;235.48;;;21.00;99.90;;;;;;5085237;28;20043;-75
2023/06/06 11:16:47;;;;;;;152.88;145.40;;;21.00;99.90;;;;;;5080831;28;20146;-77
2023/06/06 11:19:29;;;;;;;54.50;51.55;;;21.20;99.90;;;;;;5082500;28;20181;-75
2023/06/06 11:21:59;;;;;;;33.15;31.10;;;21.20;99.90;;;;;;5066483;28;20059;-77
2023/06/06 11:24:32;;;;;;;13.93;12.82;;;21.40;99.90;;;;;;5065695;28;20044;-77
2023/06/06 11:26:58;;;;;;;14.82;13.50;;;21.40;99.60;;;;;;5070256;28;20070;-76
2023/06/06 11:29:26;;;;;;;14.43;13.13;;;21.20;99.50;;;;;;5069289;28;20169;-77
2023/06/06 11:31:52;;;;;;;12.98;11.63;;;21.20;99.70;;;;;;5083882;28;20108;-78
2023/06/06 11:34:18;;;;;;;13.63;12.38;;;21.20;99.70;;;;;;5075844;28;20048;-77
2023/06/06 11:36:46;;;;;;;14.27;13.07;;;21.20;99.60;;;;;;5076201;27;20424;-79
2023/06/06 11:39:13;;;;;;;15.25;13.82;;;21.10;99.60;;;;;;5084398;28;20066;-76
2023/06/06 11:41:47;;;;;;;14.07;12.68;;;21.00;99.60;;;;;;5070686;28;20127;-77
2023/06/06 11:44:16;;;;;;;14.23;12.68;;;21.00;99.40;;;;;;5074726;28;20138;-78
2023/06/06 11:46:52;;;;;;;14.18;12.93;;;20.90;99.70;;;;;;5086988;28;20422;-77
2023/06/06 11:49:20;;;;;;;18.73;17.13;;;20.90;99.20;;;;;;5070828;28;20043;-77
2023/06/06 11:52:00;;;;;;;23.52;21.77;;;20.80;98.90;;;;;;5077277;28;20515;-77
2023/06/06 11:54:27;;;;;;;42.75;40.10;;;20.90;99.60;;;;;;5063771;28;20032;-76
2023/06/06 11:56:56;;;;;;;21.60;19.80;;;21.00;99.80;;;;;;5087051;28;20042;-77
2023/06/06 11:59:23;;;;;;;41.45;39.03;;;20.90;99.00;;;;;;5075619;28;20458;-76
2023/06/06 12:01:56;;;;;;;32.08;29.60;;;20.90;99.40;;;;;;5084564;28;20043;-77
2023/06/06 12:04:24;;;;;;;28.83;26.77;;;20.90;99.50;;;;;;5066244;28;20055;-76
2023/06/06 12:06:51;;;;;;;35.72;33.45;;;20.90;99.10;;;;;;5087145;28;20395;-76
2023/06/06 12:09:19;;;;;;;56.15;52.80;;;20.90;99.90;;;;;;5082387;28;20050;-77
2023/06/06 12:12:01;;;;;;;25.45;23.50;;;21.00;99.80;;;;;;5076871;28;20490;-78
2023/06/06 12:14:28;;;;;;;26.90;24.48;;;21.10;99.80;;;;;;5082671;28;20467;-79
2023/06/06 12:17:08;;;;;;;38.85;36.50;;;21.00;99.10;;;;;;5084506;28;20071;-79
2023/06/06 12:19:35;;;;;;;71.38;67.13;;;21.00;98.90;;;;;;5087923;28;20047;-76
2023/06/06 12:22:01;;;;;;;36.47;34.00;;;20.90;99.60;;;;;;5073541;28;20614;-76
2023/06/06 12:24:31;;;;;;;37.38;34.70;;;21.00;99.90;;;;;;5080781;28;20400;-75
2023/06/06 12:27:00;;;;;;;23.48;21.13;;;21.20;99.90;;;;;;5079828;28;20059;-77